This is the latest recevied weather packets stored in our database for station/object N4OGP-WX. If no packets are shown the sender has not sent any weather packets the latest 10 day(s).
| Time | Temp. | Humidity | Pressure | Rain* | Wind** | Luminosity | Snow |
|---|---|---|---|---|---|---|---|
| 1777540670 | 21.67° C | 90% | 1008.2 hPa | 0 mm | - | - | - |
| 1777540580 | 23.89° C | 42% | 1020.4 hPa | 0 mm | - | - | - |
| 1777540520 | 21.67° C | 90% | 1008.1 hPa | 0 mm | - | - | - |
| 1777540430 | 23.89° C | 42% | 1020.4 hPa | 0 mm | - | - | - |
| 1777540370 | 22.22° C | 90% | 1008.2 hPa | 0 mm | - | - | - |
| 1777540280 | 23.89° C | 42% | 1020.4 hPa | 0 mm | - | - | - |
| 1777540220 | 23.89° C | 42% | 1020.4 hPa | 0 mm | - | - | - |
| 1777540130 | 23.89° C | 42% | 1020.4 hPa | 0 mm | - | - | - |
| 1777540070 | 22.22° C | 90% | 1008.3 hPa | 0 mm | - | - | - |
| 1777539980 | 23.89° C | 42% | 1020.4 hPa | 0 mm | - | - | - |
| 1777539920 | 23.89° C | 42% | 1020.4 hPa | 0 mm | - | - | - |
| 1777539830 | 22.22° C | 90% | 1008.3 hPa | 0 mm | - | - | - |
| 1777539770 | 22.22° C | 90% | 1008.3 hPa | 0 mm | - | - | - |
| 1777539680 | 23.89° C | 42% | 1020.4 hPa | 0 mm | - | - | - |
| 1777539590 | 23.89° C | 42% | 1020.4 hPa | 0 mm | - | - | - |
| 1777539530 | 22.22° C | 90% | 1008.1 hPa | 0 mm | - | - | - |
| 1777539470 | 22.22° C | 90% | 1008.1 hPa | 0 mm | - | - | - |
| 1777539410 | 22.22° C | 90% | 1008.1 hPa | 0 mm | - | - | - |
| 1777539350 | 23.89° C | 42% | 1020.4 hPa | 0 mm | - | - | - |
| 1777539290 | 22.22° C | 90% | 1007.9 hPa | 0 mm | - | - | - |
| 1777539200 | 23.89° C | 42% | 1020.4 hPa | 0 mm | - | - | - |
| 1777539110 | 23.89° C | 42% | 1020.4 hPa | 0 mm | - | - | - |
| 1777539050 | 22.78° C | 90% | 1007.7 hPa | 0 mm | - | - | - |
| 1777538990 | 23.89° C | 42% | 1020.4 hPa | 0 mm | - | - | - |
| 1777538900 | 23.89° C | 42% | 1020.4 hPa | 0 mm | - | - | - |
* Rain latest hour (hover to see other rain measurements)
** Current wind speed in m/s (hover to see current wind gust speed)